Last 24 Hours

Red Mountain

10 Minute Data | America/Los_Angeles
as of 9/3/26 11:02 AM PDT
Date & Time Temp (°F) Dew Pt (°F) RH (%) Wind Spd (mph) Wind Dir (°) Wind Gust (mph) Wind Gst Dir (°) Daily Max Temp (°F) Daily Min Temp (°F)
9/3/26 - 1100 65.6 34.2 31 7.9 W | 270 12.4 WNW | 286 66.6 59.6
9/3/26 - 1050 65.0 32.2 29 7.8 WSW | 241 14.0 WSW | 243 66.6 59.6
9/3/26 - 1040 65.4 32.1 29 6.3 WSW | 240 10.5 WSW | 257 66.6 59.6
9/3/26 - 1030 65.0 29.6 26 4.7 SW | 214 10.3 SSW | 194 66.4 59.6
9/3/26 - 1020 64.2 27.6 25 6.2 SW | 224 11.1 WSW | 245 65.3 59.6
9/3/26 - 1010 64.1 27.5 25 6.1 SW | 236 10.2 W | 263 64.9 59.6
9/3/26 - 1000 63.8 25.9 24 5.6 SW | 234 9.6 WSW | 244 64.8 59.6
9/3/26 - 0950 63.2 24.4 23 5.0 SW | 218 7.5 SW | 229 63.9 59.6
9/3/26 - 0940 62.5 23.6 22 5.2 SW | 220 7.7 SW | 214 63.5 59.6
9/3/26 - 0930 62.1 24.1 23 3.0 SW | 215 4.9 WSW | 258 63.5 59.6
9/3/26 - 0920 61.4 23.3 23 3.8 SW | 218 6.6 SW | 224 63.5 59.6
9/3/26 - 0910 61.2 21.4 21 4.0 SSW | 211 5.4 SW | 226 63.5 59.6
9/3/26 - 0900 61.2 20.8 21 3.0 SSW | 208 4.3 SW | 227 63.5 59.6
9/3/26 - 0850 60.4 19.1 20 3.5 SW | 218 5.0 SW | 219 63.5 59.6
9/3/26 - 0840 60.3 17.5 19 3.6 SW | 216 5.3 SW | 216 63.5 59.6
9/3/26 - 0830 60.6 11.2 14 4.0 SSW | 210 5.0 SSW | 204 63.5 59.6
9/3/26 - 0820 60.5 9.8 13 4.4 SSW | 203 5.3 SSW | 201 63.5 59.6
9/3/26 - 0810 61.0 6.9 11 4.0 SSW | 196 4.8 SSW | 196 63.5 59.6
9/3/26 - 0800 61.6 5.8 11 3.4 SSW | 198 4.6 SSW | 210 63.5 59.6
9/3/26 - 0750 61.6 8.7 12 4.0 SSW | 202 4.8 SSW | 202 63.5 59.6
9/3/26 - 0740 61.2 9.6 13 4.2 SSW | 212 4.8 SSW | 211 63.5 59.6
9/3/26 - 0730 61.5 9.9 13 4.4 SW | 227 4.7 SW | 228 63.5 59.6
9/3/26 - 0720 61.7 6.8 11 4.1 SW | 226 4.4 SW | 225 63.5 59.6
9/3/26 - 0710 62.0 5.7 10 3.5 SW | 232 4.5 SW | 228 63.5 59.6
9/3/26 - 0700 62.2 2.5 9 3.3 WSW | 242 3.9 SW | 229 63.5 59.6
9/3/26 - 0650 62.2 7.9 12 3.7 SW | 236 4.8 WSW | 237 63.5 59.6
9/3/26 - 0640 62.4 14.6 15 3.7 W | 263 4.5 W | 272 63.5 59.6
9/3/26 - 0630 62.5 16.5 17 4.8 W | 274 5.3 W | 273 63.5 59.6
9/3/26 - 0620 62.6 18.1 18 5.4 W | 279 5.9 W | 280 63.5 59.6
9/3/26 - 0610 62.6 21.1 20 5.7 WNW | 286 6.5 WNW | 288 63.5 59.6
9/3/26 - 0600 62.8 23.3 22 5.7 WNW | 288 6.6 WNW | 295 63.5 59.6
9/3/26 - 0550 63.0 24.2 23 6.3 WNW | 289 7.7 WNW | 287 63.5 59.6
9/3/26 - 0540 63.0 26.9 25 5.2 NW | 308 7.0 WNW | 301 63.5 59.6
9/3/26 - 0530 63.0 27.6 26 4.7 NW | 306 5.9 NW | 305 63.5 59.6
9/3/26 - 0520 63.1 27.0 25 4.8 NW | 308 6.7 NW | 312 63.5 59.6
9/3/26 - 0510 63.2 23.7 22 5.5 NNW | 330 7.6 NNW | 340 63.5 59.6
9/3/26 - 0500 63.2 27.4 26 6.0 NNW | 330 7.2 NW | 319 63.5 59.6
9/3/26 - 0450 63.4 18.4 18 6.0 NW | 325 7.5 NW | 317 63.5 59.6
9/3/26 - 0440 63.4 9.3 12 5.7 NNW | 335 6.9 NNW | 333 63.5 59.6
9/3/26 - 0430 63.2 -1.0 7 5.0 NNW | 340 5.6 NNW | 340 63.3 59.6
9/3/26 - 0420 63.0 2.6 9 4.6 NNW | 342 5.3 NNW | 335 63.2 59.6
9/3/26 - 0410 63.0 1.2 8 4.1 NW | 321 4.7 NW | 320 63.2 59.6
9/3/26 - 0400 62.2 5.8 10 2.3 WNW | 301 3.4 NW | 308 62.7 59.6
9/3/26 - 0350 62.0 10.3 13 2.4 WNW | 299 3.1 NW | 312 62.2 59.6
9/3/26 - 0340 62.1 10.3 13 2.8 WNW | 301 3.3 NW | 309 62.2 59.6
9/3/26 - 0330 62.0 9.5 12 2.2 W | 263 3.5 W | 264 62.2 59.6
9/3/26 - 0320 61.9 12.0 14 1.8 WNW | 289 2.4 WNW | 287 62.0 59.6
9/3/26 - 0310 61.8 11.2 13 1.4 WNW | 290 2.3 NW | 304 62.0 59.6
9/3/26 - 0300 61.4 16.0 17 1.4 NNW | 336 2.0 N | 3 61.8 59.6
9/3/26 - 0250 60.8 25.2 26 1.5 N | 358 2.0 NNW | 343 61.3 59.6
9/3/26 - 0240 60.4 34.4 37 1.7 NNW | 331 2.1 NW | 320 61.3 59.6
9/3/26 - 0230 60.3 37.0 42 2.1 NW | 304 2.8 WNW | 299 61.3 59.6
9/3/26 - 0220 60.7 35.6 39 2.0 NW | 325 2.7 NW | 305 61.3 59.6
9/3/26 - 0210 61.1 28.3 29 2.2 WNW | 290 3.4 W | 265 61.3 59.6
9/3/26 - 0200 60.4 34.8 38 2.2 W | 280 3.1 W | 270 60.7 59.6
9/3/26 - 0150 59.8 39.8 48 1.9 W | 276 2.5 W | 276 60.5 59.6
9/3/26 - 0140 60.0 40.8 49 2.7 WNW | 285 3.3 W | 280 60.5 59.8
9/3/26 - 0130 60.1 38.6 45 2.6 WNW | 296 3.4 WNW | 288 60.4 60.0
9/3/26 - 0120 60.3 33.6 37 3.3 WNW | 288 3.8 WNW | 287 60.4 60.2
9/3/26 - 0110 60.3 33.6 37 3.8 WNW | 282 4.2 WNW | 286 60.4 60.2
9/3/26 - 0100 60.3 34.0 37 3.3 W | 281 4.2 W | 277 74.4 59.2
9/3/26 - 0050 60.3 36.6 41 3.6 W | 265 4.0 W | 268 74.4 59.2
9/3/26 - 0040 60.3 39.3 46 2.8 W | 274 3.5 W | 262 74.4 59.2
9/3/26 - 0030 60.2 35.4 39 2.4 WNW | 290 3.0 WNW | 299 74.4 59.2
9/3/26 - 0020 60.0 37.2 43 0.3 W | 270 1.2 W | 268 74.4 59.2
9/3/26 - 0010 60.4 33.3 36 1.8 WNW | 302 2.8 WNW | 300 74.4 59.2
9/3/26 - 0000 60.4 31.1 33 3.4 WNW | 298 4.3 WNW | 298 74.4 59.2
9/2/26 - 2350 60.2 32.7 35 3.0 WNW | 301 4.9 WNW | 294 74.4 59.2
9/2/26 - 2340 59.9 34.8 39 2.9 NW | 322 4.0 NW | 305 74.4 59.2
9/2/26 - 2330 60.0 34.4 38 4.5 NW | 319 6.1 NNW | 332 74.4 59.2
9/2/26 - 2320 59.8 34.5 38 5.5 NW | 326 7.4 WNW | 302 74.4 59.2
9/2/26 - 2310 60.0 35.0 39 6.1 NW | 318 7.8 WNW | 294 74.4 59.2
9/2/26 - 2300 59.6 37.0 43 4.9 NNW | 334 6.1 NNW | 332 74.4 59.2
9/2/26 - 2250 59.6 37.1 43 4.9 NW | 324 6.5 NW | 315 74.4 59.2
9/2/26 - 2240 59.6 38.9 46 5.4 NNW | 330 7.2 NW | 325 74.4 59.2
9/2/26 - 2230 59.9 38.4 45 6.4 NW | 322 8.8 NW | 325 74.4 59.2
9/2/26 - 2220 59.8 39.2 46 7.9 NW | 308 10.7 WNW | 303 74.4 59.2
9/2/26 - 2210 59.9 40.1 48 8.4 NW | 318 11.3 NW | 309 74.4 59.2
9/2/26 - 2200 60.8 38.6 44 9.6 WNW | 302 11.2 WNW | 299 74.4 59.3
9/2/26 - 2150 60.9 38.9 44 11.2 WNW | 302 12.7 WNW | 302 74.4 59.3
9/2/26 - 2140 61.1 37.5 41 11.0 WNW | 296 12.6 WNW | 295 74.4 59.3
9/2/26 - 2130 61.5 35.7 38 11.0 WNW | 300 12.5 WNW | 294 74.4 59.3
9/2/26 - 2120 61.4 35.4 38 10.6 WNW | 295 12.4 WNW | 292 74.4 59.3
9/2/26 - 2110 61.7 33.6 35 10.2 WNW | 284 12.9 W | 279 74.4 59.3
9/2/26 - 2100 62.2 28.7 28 9.8 W | 280 12.3 W | 275 74.4 59.3
9/2/26 - 2050 62.1 29.2 29 8.4 W | 274 12.2 W | 265 74.4 59.3
9/2/26 - 2040 62.5 30.7 30 10.7 W | 259 14.8 WSW | 255 74.4 59.3
9/2/26 - 2030 62.7 30.3 29 11.2 W | 259 14.7 W | 259 74.4 59.3
9/2/26 - 2020 62.5 31.6 31 8.7 WSW | 256 13.3 WSW | 256 74.4 59.3
9/2/26 - 2010 62.4 33.7 34 8.6 WSW | 252 13.2 WSW | 241 74.4 59.3
9/2/26 - 2000 62.4 37.0 39 7.9 WSW | 252 13.0 WSW | 249 74.4 59.3
9/2/26 - 1950 62.7 36.4 38 9.5 WSW | 242 14.9 SW | 235 74.4 59.3
9/2/26 - 1940 63.2 34.4 34 8.8 SW | 235 14.2 SW | 235 74.4 59.3
9/2/26 - 1930 63.7 34.6 34 9.0 WSW | 240 14.2 WSW | 246 74.4 59.3
9/2/26 - 1920 64.2 32.8 31 9.4 WSW | 242 15.0 WSW | 246 74.4 59.3
9/2/26 - 1910 64.0 34.9 34 9.2 WSW | 239 13.9 SW | 230 74.4 59.3
9/2/26 - 1900 64.1 37.8 38 9.0 WSW | 249 14.1 WSW | 240 74.4 59.3
9/2/26 - 1850 64.8 37.5 37 9.1 WSW | 246 14.5 WSW | 249 74.4 59.3
9/2/26 - 1840 64.6 39.6 40 9.9 WSW | 242 15.9 WSW | 251 74.4 59.3
9/2/26 - 1830 65.2 37.4 36 10.2 WSW | 242 14.1 WSW | 239 74.4 59.3
9/2/26 - 1820 66.9 36.0 32 9.4 SW | 230 13.4 SW | 222 74.4 59.3
9/2/26 - 1810 66.9 34.1 30 11.0 WSW | 240 16.7 WSW | 237 74.4 59.3
9/2/26 - 1800 67.8 30.0 24 11.5 SW | 232 15.6 SW | 223 74.4 59.3
9/2/26 - 1750 68.6 34.2 28 12.0 SW | 234 17.8 WSW | 247 74.4 59.3
9/2/26 - 1740 68.9 35.9 30 13.4 SW | 234 20.0 SW | 236 74.4 59.3
9/2/26 - 1730 69.6 33.8 27 13.6 SW | 234 19.2 SW | 235 74.4 59.3
9/2/26 - 1720 70.6 33.4 25 12.8 SW | 233 18.9 WSW | 240 74.4 59.3
9/2/26 - 1710 70.3 34.5 27 13.5 SW | 233 20.9 WSW | 250 74.4 59.3
9/2/26 - 1700 70.8 32.2 24 11.8 SW | 229 20.1 SW | 220 74.4 59.3
9/2/26 - 1650 71.8 31.0 22 11.1 SW | 230 18.4 WSW | 253 74.4 59.3
9/2/26 - 1640 71.0 30.1 22 14.0 WSW | 245 21.6 WSW | 240 74.4 59.3
9/2/26 - 1630 71.4 30.8 22 12.8 SW | 234 21.3 SW | 222 74.4 59.3
9/2/26 - 1620 70.9 31.6 23 13.3 SW | 234 21.4 SW | 225 74.4 59.3
9/2/26 - 1610 70.7 31.7 24 13.7 SW | 233 23.5 WSW | 239 74.4 59.3
9/2/26 - 1600 70.6 33.3 25 13.5 WSW | 237 21.8 WSW | 243 74.4 59.3
9/2/26 - 1550 70.7 35.4 27 14.0 SW | 231 21.0 SW | 219 74.4 59.3
9/2/26 - 1540 72.2 35.2 26 12.6 SW | 234 21.8 WSW | 256 74.4 59.3
9/2/26 - 1530 72.3 33.8 24 10.7 SW | 235 18.4 WSW | 238 74.4 59.3
9/2/26 - 1520 73.3 34.9 25 10.3 SW | 235 19.4 SW | 226 74.2 59.3
9/2/26 - 1510 70.9 35.9 28 13.1 SW | 227 21.6 SW | 233 73.4 59.3
9/2/26 - 1500 71.2 37.0 29 12.4 SW | 235 20.2 SW | 231 73.4 59.3
9/2/26 - 1450 70.3 35.9 28 12.1 WSW | 242 19.4 SSW | 210 73.4 59.3
9/2/26 - 1440 70.3 35.0 27 10.9 SW | 233 20.3 WSW | 240 73.4 59.3
9/2/26 - 1430 70.3 35.5 28 10.4 SW | 234 17.1 WSW | 251 73.4 59.3
9/2/26 - 1420 71.6 34.5 26 10.8 SW | 222 18.3 WSW | 246 73.4 59.3
9/2/26 - 1410 71.8 35.2 26 10.7 SW | 231 22.9 WSW | 244 73.4 59.3
9/2/26 - 1400 71.7 33.8 25 10.1 SW | 227 21.5 WSW | 237 73.4 59.3
9/2/26 - 1350 70.6 32.5 24 13.4 WSW | 246 20.8 W | 267 73.1 59.3
9/2/26 - 1340 70.5 30.2 22 10.3 SW | 235 21.8 WSW | 238 73.1 59.3
9/2/26 - 1330 71.2 29.7 21 12.8 WSW | 244 18.8 SSW | 213 72.8 59.3
9/2/26 - 1320 71.5 26.9 19 10.5 SW | 228 18.3 SW | 232 72.8 59.3
9/2/26 - 1310 70.5 25.3 18 10.6 WSW | 239 19.1 WSW | 255 72.8 59.3
9/2/26 - 1300 70.8 24.8 18 9.0 SW | 226 17.5 WSW | 247 72.8 59.3
9/2/26 - 1250 70.5 25.1 18 12.5 SW | 233 19.2 WSW | 250 72.8 59.3
9/2/26 - 1240 70.8 28.2 20 9.7 SW | 226 18.2 SW | 232 72.5 59.3
9/2/26 - 1230 70.8 26.3 19 9.5 SW | 231 19.8 WSW | 240 72.4 59.3
9/2/26 - 1220 69.9 25.6 19 7.5 SW | 224 14.6 SW | 230 72.4 59.3
9/2/26 - 1210 70.4 25.1 18 10.4 SW | 232 17.5 WSW | 256 72.4 59.3
9/2/26 - 1200 71.2 24.5 17 8.8 SW | 233 15.0 SW | 233 72.4 59.3
9/2/26 - 1150 70.3 24.4 18 7.0 SSW | 211 14.0 SW | 214 72.3 59.3
9/2/26 - 1140 69.6 23.9 18 8.7 SW | 227 14.8 SW | 223 71.1 59.3
9/2/26 - 1130 69.9 25.1 18 7.9 WSW | 237 16.7 W | 272 71.1 59.3
9/2/26 - 1120 69.2 25.9 20 8.5 WSW | 252 15.5 W | 271 70.3 59.3
9/2/26 - 1110 68.3 26.9 21 8.7 SW | 234 14.8 WSW | 250 69.4 59.3
9/2/26 - 1100 68.3 28.4 22 7.4 W | 262 15.1 WSW | 256 69.4 59.3
Max 73.3 40.8 49 14.0 - 23.5 - 74.4 60.2
Avg 64.5 27.7 27 7.1 - 10.9 - - -
Min 59.6 -1.0 7 0.3 - 1.2 - 60.4 59.2